Guymon, OK

6:30 PM CDT on March 29, 2017 (GMT -0500)
Guymon Municipal | | Change Station

Elev 3123 ft 36.69 °N, 101.51 °W | Updated 27 minutes ago

Overcast
Overcast
47 °F
Feels Like 47 °F
N
25
Wind Variable Wind from NNW
Gusts 34 mph

Today
High -- | Low -- °F
--% Chance of Precip.
Yesterday
High -- | Low -- °F
Precip. -- in
Pressure 29.90 in
Visibility 10.0 miles
Clouds Few 1700 ft
Mostly Cloudy 3200 ft
Overcast 4300 ft
Dew Point 42 °F
Humidity 83%
Rainfall 0.50 in
Snow Depth Not available.
7:35 AM 8:05 PM
Waxing Crescent, 5% visible
SPECI KGUY 292303Z AUTO 34022G30KT 10SM FEW017 BKN032 OVC043 08/06 A2990 RMK AO2 PK WND 34030/2259 T00830056
Pressure 29.90 in
Visibility 10.0 miles
Clouds Few 1700 ft
Mostly Cloudy 3200 ft
Overcast 4300 ft
Dew Point 42 °F
Humidity 83%
Rainfall 0.50 in
Snow Depth Not available.
7:35 AM 8:05 PM
Waxing Crescent, 5% visible
SPECI KGUY 292303Z AUTO 34022G30KT 10SM FEW017 BKN032 OVC043 08/06 A2990 RMK AO2 PK WND 34030/2259 T00830056

Get Severe Weather Alerts

Thanks for signing up!

Be on the lookout for a verification email in your inbox.

You'll start receiving the daily forecast at 8 AM.

×

10-Day Weather Forecast

Almanac

Astronomy

Mar. 29, 2017 Rise Set
Actual Time
Civil Twilight
Nautical Twilight
Astronomical Twilight
Moon
Length of Visible Light
Length of Day
Tomorrow will be .
, % of the Moon is Illuminated

Today's Extremes

State Highs State Lows

Community

WunderPhotos

Upload Photos

1,962,540 photos uploaded!

WunderBlog® & News

Nearby

Air Quality

  Air Quality AQ Index Pollutant
Not available.

Snow Depth

Station Depth Elevation

Earthquake Activity

City Distance Mag. Time & Date
Minimum magnitude displayed is 2.5.

Earthquake Activity

City Distance Mag. Time & Date
Minimum magnitude displayed is 2.5.

Coastal Water Temperatures

Place Temperature

Stations

Nearby Weather Stations

Station Location Temp. Windchill Dew Point Humidity Wind Precip. Elev Updated Type
                   

Watches & Warnings

There are currently no watches in effect.